createdAt,value
2019-02-23T00:00:55.733Z,10.85
2019-02-23T00:01:59.969Z,10.82
2019-02-23T00:03:03.964Z,10.78
2019-02-23T00:04:07.806Z,10.79
2019-02-23T00:05:11.989Z,10.76
2019-02-23T00:06:16.084Z,10.75
2019-02-23T00:07:19.994Z,10.78
2019-02-23T00:08:24.084Z,10.76
2019-02-23T00:09:28.179Z,10.73
2019-02-23T00:10:32.125Z,10.74
2019-02-23T00:11:36.352Z,10.70
2019-02-23T00:12:40.956Z,10.68
2019-02-23T00:13:45.731Z,10.68
2019-02-23T00:14:49.985Z,10.62
2019-02-23T00:15:54.227Z,10.61
2019-02-23T00:16:58.398Z,10.59
2019-02-23T00:18:02.641Z,10.59
2019-02-23T00:19:06.626Z,10.61
2019-02-23T00:20:10.635Z,10.60
2019-02-23T00:21:14.805Z,10.60
2019-02-23T00:22:18.790Z,10.60
2019-02-23T00:23:22.628Z,10.69
2019-02-23T00:24:26.470Z,10.61
2019-02-23T00:25:30.401Z,10.59
2019-02-23T00:26:34.489Z,10.58
2019-02-23T00:27:38.333Z,10.59
2019-02-23T00:28:42.336Z,10.63
2019-02-23T00:29:46.680Z,10.68
2019-02-23T00:30:50.864Z,10.58
2019-02-23T00:31:55.341Z,10.50
2019-02-23T00:32:59.687Z,10.50
2019-02-23T00:34:04.093Z,10.45
2019-02-23T00:35:08.349Z,10.36
2019-02-23T00:36:12.510Z,10.28
2019-02-23T00:37:16.849Z,10.27
2019-02-23T00:38:20.765Z,10.27
2019-02-23T00:39:24.678Z,10.25
2019-02-23T00:40:28.608Z,10.25
2019-02-23T00:41:33.090Z,10.29
2019-02-23T00:42:37.005Z,10.25
2019-02-23T00:43:40.923Z,10.21
2019-02-23T00:44:45.085Z,10.21
2019-02-23T00:45:49.366Z,10.16
2019-02-23T00:46:53.489Z,10.14
2019-02-23T00:47:58.001Z,10.09
2019-02-23T00:49:02.518Z,10.07
2019-02-23T00:50:06.826Z,10.01
2019-02-23T00:51:11.359Z,9.97
2019-02-23T00:52:16.051Z,9.95
2019-02-23T00:53:20.155Z,9.90
2019-02-23T00:54:24.884Z,9.92
2019-02-23T00:55:29.054Z,9.86
2019-02-23T00:56:33.059Z,9.86
2019-02-23T00:57:37.228Z,9.80
2019-02-23T00:58:41.416Z,9.77
2019-02-23T00:59:45.505Z,9.75
2019-02-23T01:00:50.375Z,9.74
2019-02-23T01:01:54.288Z,9.75
2019-02-23T01:02:59.159Z,9.75
2019-02-23T01:04:03.462Z,9.77
2019-02-23T01:05:07.654Z,9.75
2019-02-23T01:06:12.000Z,9.74
2019-02-23T01:07:16.571Z,9.76
2019-02-23T01:08:21.379Z,9.76
2019-02-23T01:09:25.595Z,9.78
2019-02-23T01:10:29.841Z,9.74
2019-02-23T01:11:33.751Z,9.72
2019-02-23T01:12:37.663Z,9.69
2019-02-23T01:13:41.793Z,9.71
2019-02-23T01:14:45.633Z,9.72
2019-02-23T01:15:49.629Z,9.66
2019-02-23T01:16:53.609Z,9.56
2019-02-23T01:17:58.030Z,9.52
2019-02-23T01:19:02.274Z,9.45
2019-02-23T01:20:07.609Z,9.43
2019-02-23T01:21:11.621Z,9.43
2019-02-23T01:22:15.536Z,9.44
2019-02-23T01:23:20.271Z,9.39
2019-02-23T01:24:24.198Z,9.36
2019-02-23T01:25:28.527Z,9.32
2019-02-23T01:26:32.892Z,9.29
2019-02-23T01:27:36.885Z,9.25
2019-02-23T01:28:41.002Z,9.23
2019-02-23T01:29:44.841Z,9.21
2019-02-23T01:30:49.059Z,9.24
2019-02-23T01:31:53.228Z,9.20
2019-02-23T01:32:57.217Z,9.16
2019-02-23T01:34:02.022Z,9.09
2019-02-23T01:35:06.920Z,9.07
2019-02-23T01:36:11.412Z,9.01
2019-02-23T01:37:15.895Z,8.98
2019-02-23T01:38:20.128Z,8.98
2019-02-23T01:39:24.287Z,9.01
2019-02-23T01:40:28.274Z,8.96
2019-02-23T01:41:32.447Z,8.95
2019-02-23T01:42:36.352Z,8.96
2019-02-23T01:43:40.259Z,8.95
2019-02-23T01:44:44.351Z,8.94
2019-02-23T01:45:48.533Z,8.93
2019-02-23T01:46:52.373Z,8.90
2019-02-23T01:47:56.790Z,8.91
2019-02-23T01:49:01.123Z,8.89
2019-02-23T01:50:05.362Z,8.87
2019-02-23T01:51:09.797Z,8.89
2019-02-23T01:52:13.946Z,8.85
2019-02-23T01:53:18.184Z,8.82
2019-02-23T01:54:22.340Z,8.77
2019-02-23T01:55:26.254Z,8.75
2019-02-23T01:56:30.779Z,8.73
2019-02-23T01:57:34.660Z,8.71
2019-02-23T01:58:39.092Z,8.69
2019-02-23T01:59:43.256Z,8.69
2019-02-23T02:00:47.415Z,8.70
2019-02-23T02:01:51.657Z,8.72
2019-02-23T02:02:55.892Z,8.69
2019-02-23T02:03:59.732Z,8.69
2019-02-23T02:05:04.252Z,8.71
2019-02-23T02:06:08.176Z,8.71
2019-02-23T02:07:12.513Z,8.72
2019-02-23T02:08:16.499Z,8.73
2019-02-23T02:09:20.652Z,8.73
2019-02-23T02:10:24.810Z,8.75
2019-02-23T02:11:28.674Z,8.73
2019-02-23T02:12:32.812Z,8.71
2019-02-23T02:13:37.320Z,8.69
2019-02-23T02:14:41.231Z,8.67
2019-02-23T02:15:45.431Z,8.66
2019-02-23T02:16:50.053Z,8.66
2019-02-23T02:17:54.093Z,8.67
2019-02-23T02:18:58.389Z,8.71
2019-02-23T02:20:10.476Z,8.71
2019-02-23T02:21:08.938Z,8.72
2019-02-23T02:22:13.184Z,8.73
2019-02-23T02:23:17.330Z,8.79
2019-02-23T02:24:21.173Z,8.76
2019-02-23T02:25:25.024Z,8.77
2019-02-23T02:26:29.034Z,8.78
2019-02-23T02:27:32.974Z,8.81
2019-02-23T02:28:36.891Z,8.83
2019-02-23T02:29:41.180Z,8.84
2019-02-23T02:30:45.056Z,8.85
2019-02-23T02:31:49.312Z,8.84
2019-02-23T02:32:53.432Z,8.85
2019-02-23T02:34:08.415Z,8.87
2019-02-23T02:35:12.705Z,8.85
2019-02-23T02:36:17.153Z,8.86
2019-02-23T02:37:21.629Z,8.84
2019-02-23T02:38:26.243Z,8.84
2019-02-23T02:39:30.583Z,8.84
2019-02-23T02:40:34.988Z,8.82
2019-02-23T02:41:38.986Z,8.83
2019-02-23T02:42:43.245Z,8.83
2019-02-23T02:43:47.176Z,8.85
2019-02-23T02:44:52.098Z,8.84
2019-02-23T02:45:56.305Z,8.83
2019-02-23T02:47:00.150Z,8.84
2019-02-23T02:48:04.155Z,8.84
2019-02-23T02:49:08.435Z,8.83
2019-02-23T02:50:23.672Z,8.85
2019-02-23T02:51:18.743Z,8.86
2019-02-23T02:52:23.097Z,8.86
2019-02-23T02:53:27.296Z,8.87
2019-02-23T02:54:31.495Z,8.89
2019-02-23T02:55:35.712Z,8.89
2019-02-23T02:56:39.693Z,8.90
2019-02-23T02:57:43.897Z,8.91
2019-02-23T02:58:48.303Z,8.90
2019-02-23T02:59:52.285Z,8.87
2019-02-23T03:00:56.830Z,8.87
2019-02-23T03:02:01.140Z,8.88
2019-02-23T03:03:04.983Z,8.86
2019-02-23T03:04:09.337Z,8.83
2019-02-23T03:05:14.137Z,8.83
2019-02-23T03:06:18.057Z,8.82
2019-02-23T03:07:22.768Z,8.83
2019-02-23T03:08:27.005Z,8.85
2019-02-23T03:09:31.494Z,8.84
2019-02-23T03:10:35.700Z,8.85
2019-02-23T03:11:39.737Z,8.84
2019-02-23T03:12:43.600Z,8.83
2019-02-23T03:13:47.869Z,8.84
2019-02-23T03:14:52.323Z,8.78
2019-02-23T03:15:56.828Z,8.75
2019-02-23T03:17:01.069Z,8.73
2019-02-23T03:18:05.217Z,8.71
2019-02-23T03:19:09.773Z,8.64
2019-02-23T03:20:14.162Z,8.62
2019-02-23T03:21:17.997Z,8.61
2019-02-23T03:22:22.083Z,8.59
2019-02-23T03:23:25.994Z,8.58
2019-02-23T03:24:30.173Z,8.57
2019-02-23T03:25:34.319Z,8.56
2019-02-23T03:26:38.555Z,8.56
2019-02-23T03:27:42.976Z,8.53
2019-02-23T03:28:46.895Z,8.53
2019-02-23T03:29:50.745Z,8.50
2019-02-23T03:30:54.723Z,8.46
2019-02-23T03:31:58.561Z,8.45
2019-02-23T03:33:02.513Z,8.45
2019-02-23T03:34:06.774Z,8.49
2019-02-23T03:35:10.962Z,8.45
2019-02-23T03:36:15.115Z,8.44
2019-02-23T03:37:19.207Z,8.43
2019-02-23T03:38:23.300Z,8.43
2019-02-23T03:39:27.415Z,8.43
2019-02-23T03:40:31.398Z,8.43
2019-02-23T03:41:35.642Z,8.39
2019-02-23T03:42:39.818Z,8.42
2019-02-23T03:43:44.223Z,8.42
2019-02-23T03:44:48.641Z,8.40
2019-02-23T03:45:52.476Z,8.42
2019-02-23T03:46:56.631Z,8.44
2019-02-23T03:48:01.356Z,8.47
2019-02-23T03:49:05.859Z,8.44
2019-02-23T03:50:09.852Z,8.47
2019-02-23T03:51:14.087Z,8.43
2019-02-23T03:52:18.324Z,8.43
2019-02-23T03:53:22.576Z,8.41
2019-02-23T03:54:26.807Z,8.42
2019-02-23T03:55:30.719Z,8.41
2019-02-23T03:56:35.204Z,8.38
2019-02-23T03:57:39.541Z,8.36
2019-02-23T03:58:43.736Z,8.35
2019-02-23T03:59:47.930Z,8.35
2019-02-23T04:00:51.920Z,8.34
2019-02-23T04:01:57.001Z,8.35
2019-02-23T04:03:00.924Z,8.34
2019-02-23T04:04:04.911Z,8.35
2019-02-23T04:05:09.758Z,8.38
2019-02-23T04:06:13.663Z,8.38
2019-02-23T04:07:18.189Z,8.40
2019-02-23T04:08:22.113Z,8.41
2019-02-23T04:09:26.393Z,8.41
2019-02-23T04:10:30.599Z,8.43
2019-02-23T04:11:34.515Z,8.44
2019-02-23T04:12:38.820Z,8.45
2019-02-23T04:13:43.316Z,8.45
2019-02-23T04:14:47.499Z,8.47
2019-02-23T04:15:51.415Z,8.46
2019-02-23T04:16:55.451Z,8.46
2019-02-23T04:18:00.056Z,8.48
2019-02-23T04:19:04.351Z,8.47
2019-02-23T04:20:08.372Z,8.48
2019-02-23T04:21:12.552Z,8.49
2019-02-23T04:22:16.662Z,8.49
2019-02-23T04:23:21.086Z,8.48
2019-02-23T04:24:25.282Z,8.46
2019-02-23T04:25:29.141Z,8.52
2019-02-23T04:26:32.990Z,8.49
2019-02-23T04:27:36.910Z,8.47
2019-02-23T04:28:41.607Z,8.45
2019-02-23T04:29:47.029Z,8.42
2019-02-23T04:30:51.023Z,8.41
2019-02-23T04:31:55.175Z,8.40
2019-02-23T04:32:59.861Z,8.39
2019-02-23T04:34:04.270Z,8.34
2019-02-23T04:35:08.532Z,8.29
2019-02-23T04:36:12.683Z,8.29
2019-02-23T04:37:16.777Z,8.25
2019-02-23T04:38:20.614Z,8.21
2019-02-23T04:39:24.951Z,8.20
2019-02-23T04:40:28.792Z,8.16
2019-02-23T04:41:33.587Z,8.13
2019-02-23T04:42:37.693Z,8.10
2019-02-23T04:43:44.239Z,8.07
2019-02-23T04:44:48.644Z,8.03
2019-02-23T04:45:52.563Z,8.00
2019-02-23T04:46:56.653Z,7.98
2019-02-23T04:48:00.492Z,7.96
2019-02-23T04:49:04.645Z,7.95
2019-02-23T04:50:09.022Z,7.91
2019-02-23T04:51:14.625Z,7.89
2019-02-23T04:52:18.416Z,7.88
2019-02-23T04:53:22.755Z,7.85
2019-02-23T04:54:26.850Z,7.85
2019-02-23T04:55:31.016Z,7.86
2019-02-23T04:56:34.928Z,7.86
2019-02-23T04:57:39.016Z,7.84
2019-02-23T04:58:43.372Z,7.84
2019-02-23T04:59:47.210Z,7.83
2019-02-23T05:00:51.129Z,7.80
2019-02-23T05:01:55.297Z,7.81
2019-02-23T05:02:59.759Z,7.78
2019-02-23T05:04:03.920Z,7.77
2019-02-23T05:05:08.740Z,7.72
2019-02-23T05:06:13.412Z,7.69
2019-02-23T05:07:17.575Z,7.71
2019-02-23T05:08:21.664Z,7.62
2019-02-23T05:09:25.601Z,7.56
2019-02-23T05:10:29.734Z,7.52
2019-02-23T05:11:33.589Z,7.48
2019-02-23T05:12:37.421Z,7.44
2019-02-23T05:13:41.765Z,7.40
2019-02-23T05:14:45.851Z,7.37
2019-02-23T05:15:50.491Z,7.33
2019-02-23T05:16:54.400Z,7.30
2019-02-23T05:17:58.804Z,7.29
2019-02-23T05:19:02.898Z,7.30
2019-02-23T05:20:06.940Z,7.28
2019-02-23T05:21:11.333Z,7.28
2019-02-23T05:22:15.603Z,7.30
2019-02-23T05:23:19.884Z,7.33
2019-02-23T05:24:24.052Z,7.34
2019-02-23T05:25:27.885Z,7.33
2019-02-23T05:26:32.006Z,7.36
2019-02-23T05:27:36.163Z,7.38
2019-02-23T05:28:40.427Z,7.36
2019-02-23T05:29:44.911Z,7.36
2019-02-23T05:30:48.976Z,7.35
2019-02-23T05:31:53.527Z,7.36
2019-02-23T05:32:57.901Z,7.38
2019-02-23T05:34:01.997Z,7.40
2019-02-23T05:35:06.446Z,7.39
2019-02-23T05:36:11.052Z,7.36
2019-02-23T05:37:15.234Z,7.35
2019-02-23T05:38:19.144Z,7.34
2019-02-23T05:39:23.431Z,7.32
2019-02-23T05:40:27.536Z,7.32
2019-02-23T05:41:32.081Z,7.32
2019-02-23T05:42:36.592Z,7.29
2019-02-23T05:43:40.798Z,7.24
2019-02-23T05:44:45.105Z,7.19
2019-02-23T05:45:49.015Z,7.19
2019-02-23T05:46:53.311Z,7.14
2019-02-23T05:47:57.493Z,7.09
2019-02-23T05:49:01.935Z,7.06
2019-02-23T05:50:06.248Z,7.03
2019-02-23T05:51:10.346Z,6.99
2019-02-23T05:52:14.460Z,6.96
2019-02-23T05:53:18.672Z,6.89
2019-02-23T05:54:23.117Z,6.83
2019-02-23T05:55:27.393Z,6.83
2019-02-23T05:56:31.985Z,6.76
2019-02-23T05:57:36.180Z,6.73
2019-02-23T05:58:40.241Z,6.68
2019-02-23T05:59:45.057Z,6.69
2019-02-23T06:00:49.883Z,6.61
2019-02-23T06:01:54.598Z,6.50
2019-02-23T06:02:58.957Z,6.41
2019-02-23T06:04:02.796Z,6.43
2019-02-23T06:05:07.370Z,6.39
2019-02-23T06:06:11.713Z,6.24
2019-02-23T06:07:16.634Z,6.15
2019-02-23T06:08:20.735Z,6.08
2019-02-23T06:09:25.083Z,6.03
2019-02-23T06:10:28.987Z,6.00
2019-02-23T06:11:33.332Z,5.98
2019-02-23T06:12:37.726Z,5.96
2019-02-23T06:13:41.817Z,5.95
2019-02-23T06:14:45.903Z,5.94
2019-02-23T06:15:49.740Z,5.91
2019-02-23T06:16:54.147Z,5.92
2019-02-23T06:17:58.745Z,5.88
2019-02-23T06:19:02.583Z,5.86
2019-02-23T06:20:06.824Z,5.83
2019-02-23T06:21:11.274Z,5.85
2019-02-23T06:22:15.113Z,5.82
2019-02-23T06:23:19.846Z,5.80
2019-02-23T06:24:24.009Z,5.78
2019-02-23T06:25:27.898Z,5.75
2019-02-23T06:26:32.325Z,5.74
2019-02-23T06:27:36.436Z,5.72
2019-02-23T06:28:40.692Z,5.71
2019-02-23T06:29:44.781Z,5.71
2019-02-23T06:30:49.027Z,5.53
2019-02-23T06:31:53.294Z,5.69
2019-02-23T06:32:57.572Z,5.68
2019-02-23T06:34:01.390Z,5.68
2019-02-23T06:35:06.152Z,5.67
2019-02-23T06:36:10.137Z,5.65
2019-02-23T06:37:14.356Z,5.63
2019-02-23T06:38:18.558Z,5.63
2019-02-23T06:39:23.181Z,5.61
2019-02-23T06:40:27.285Z,5.62
2019-02-23T06:41:32.035Z,5.64
2019-02-23T06:42:35.986Z,5.62
2019-02-23T06:43:39.931Z,5.64
2019-02-23T06:44:44.083Z,5.61
2019-02-23T06:45:48.316Z,5.58
2019-02-23T06:46:52.522Z,5.57
2019-02-23T06:47:56.606Z,5.55
2019-02-23T06:49:00.838Z,5.54
2019-02-23T06:50:05.155Z,5.53
2019-02-23T06:51:09.855Z,5.53
2019-02-23T06:52:14.473Z,5.50
2019-02-23T06:53:18.388Z,5.49
2019-02-23T06:54:22.598Z,5.48
2019-02-23T06:55:26.882Z,5.48
2019-02-23T06:56:31.105Z,5.49
2019-02-23T06:57:35.616Z,5.49
2019-02-23T06:58:40.154Z,5.51
2019-02-23T06:59:44.811Z,5.53
2019-02-23T07:00:48.896Z,5.53
2019-02-23T07:01:53.070Z,5.54
2019-02-23T07:02:56.975Z,5.55
2019-02-23T07:04:01.419Z,5.56
2019-02-23T07:05:05.897Z,5.56
2019-02-23T07:06:10.425Z,5.56
2019-02-23T07:07:14.588Z,5.58
2019-02-23T07:08:18.777Z,5.60
2019-02-23T07:09:22.860Z,5.62
2019-02-23T07:10:26.701Z,5.60
2019-02-23T07:11:30.541Z,5.60
2019-02-23T07:12:34.629Z,5.61
2019-02-23T07:13:41.802Z,5.60
2019-02-23T07:14:45.645Z,5.59
2019-02-23T07:15:49.473Z,5.61
2019-02-23T07:16:53.708Z,5.60
2019-02-23T07:17:57.615Z,5.61
2019-02-23T07:19:01.780Z,5.61
2019-02-23T07:20:06.117Z,5.62
2019-02-23T07:21:10.276Z,5.60
2019-02-23T07:22:15.781Z,5.63
2019-02-23T07:23:20.253Z,5.61
2019-02-23T07:24:24.088Z,5.61
2019-02-23T07:25:28.519Z,5.63
2019-02-23T07:26:32.683Z,5.67
2019-02-23T07:27:36.526Z,5.65
2019-02-23T07:28:40.611Z,5.66
2019-02-23T07:29:44.716Z,5.67
2019-02-23T07:30:49.123Z,5.66
2019-02-23T07:31:53.463Z,5.67
2019-02-23T07:32:58.128Z,5.67
2019-02-23T07:34:02.292Z,5.73
2019-02-23T07:35:06.611Z,5.68
2019-02-23T07:36:10.976Z,5.66
2019-02-23T07:37:15.103Z,5.66
2019-02-23T07:38:19.618Z,5.67
2019-02-23T07:39:23.973Z,5.67
2019-02-23T07:40:28.200Z,5.69
2019-02-23T07:41:32.335Z,5.71
2019-02-23T07:42:36.262Z,5.75
2019-02-23T07:43:40.445Z,5.75
2019-02-23T07:44:44.649Z,5.78
2019-02-23T07:45:48.836Z,5.81
2019-02-23T07:46:53.055Z,5.75
2019-02-23T07:47:57.538Z,5.73
2019-02-23T07:49:01.981Z,5.73
2019-02-23T07:50:07.373Z,5.73
2019-02-23T07:51:11.516Z,5.75
2019-02-23T07:52:25.709Z,5.75
2019-02-23T07:53:21.382Z,5.76
2019-02-23T07:54:25.610Z,5.82
2019-02-23T07:55:30.091Z,5.82
2019-02-23T07:56:35.173Z,5.81
2019-02-23T07:57:39.268Z,5.83
2019-02-23T07:58:43.823Z,5.79
2019-02-23T07:59:48.411Z,5.79
2019-02-23T08:00:52.404Z,5.80
2019-02-23T08:01:56.492Z,5.89
2019-02-23T08:03:00.719Z,5.93
2019-02-23T08:04:04.705Z,5.93
2019-02-23T08:05:09.147Z,5.91
2019-02-23T08:06:13.656Z,5.91
2019-02-23T08:07:17.636Z,5.85
2019-02-23T08:08:22.128Z,5.86
2019-02-23T08:09:26.565Z,5.85
2019-02-23T08:10:30.967Z,5.88
2019-02-23T08:11:35.646Z,5.86
2019-02-23T08:12:39.802Z,5.92
2019-02-23T08:13:43.898Z,5.91
2019-02-23T08:14:48.234Z,5.89
2019-02-23T08:15:52.583Z,5.87
2019-02-23T08:16:56.662Z,5.86
2019-02-23T08:18:00.577Z,5.98
2019-02-23T08:19:04.557Z,5.96
2019-02-23T08:20:08.777Z,5.88
2019-02-23T08:21:12.708Z,5.87
2019-02-23T08:22:16.784Z,5.83
2019-02-23T08:23:21.522Z,5.86
2019-02-23T08:24:25.427Z,5.84
2019-02-23T08:25:29.754Z,5.83
2019-02-23T08:26:33.681Z,5.85
2019-02-23T08:27:38.091Z,5.87
2019-02-23T08:28:42.705Z,5.92
2019-02-23T08:29:46.863Z,6.01
2019-02-23T08:30:50.870Z,6.01
2019-02-23T08:31:55.103Z,6.05
2019-02-23T08:32:59.193Z,6.02
2019-02-23T08:34:03.539Z,5.98
2019-02-23T08:35:07.862Z,6.00
2019-02-23T08:36:12.295Z,6.01
2019-02-23T08:37:16.791Z,6.04
2019-02-23T08:38:20.634Z,6.10
2019-02-23T08:39:24.800Z,6.11
2019-02-23T08:40:29.218Z,6.14
2019-02-23T08:41:33.649Z,6.19
2019-02-23T08:42:37.903Z,6.22
2019-02-23T08:43:41.800Z,6.25
2019-02-23T08:44:45.899Z,6.29
2019-02-23T08:45:49.732Z,6.31
2019-02-23T08:46:54.160Z,6.34
2019-02-23T08:47:58.514Z,6.37
2019-02-23T08:49:02.786Z,6.39
2019-02-23T08:50:08.838Z,6.44
2019-02-23T08:51:13.309Z,6.45
2019-02-23T08:52:18.366Z,6.48
2019-02-23T08:53:22.616Z,6.51
2019-02-23T08:54:27.437Z,6.55
2019-02-23T08:55:31.957Z,6.54
2019-02-23T08:56:36.363Z,6.64
2019-02-23T08:57:40.568Z,6.63
2019-02-23T08:58:45.385Z,6.64
2019-02-23T08:59:49.716Z,6.66
2019-02-23T09:00:54.413Z,6.67
2019-02-23T09:01:58.820Z,6.70
2019-02-23T09:03:03.133Z,6.71
2019-02-23T09:04:07.103Z,6.72
2019-02-23T09:05:12.083Z,6.74
2019-02-23T09:06:16.601Z,6.76
2019-02-23T09:07:21.402Z,6.76
2019-02-23T09:08:25.649Z,6.80
2019-02-23T09:09:30.108Z,6.79
2019-02-23T09:10:34.286Z,6.80
2019-02-23T09:11:38.822Z,6.81
2019-02-23T09:12:43.130Z,6.81
2019-02-23T09:13:47.237Z,6.83
2019-02-23T09:14:51.620Z,6.85
2019-02-23T09:15:55.976Z,6.85
2019-02-23T09:17:00.166Z,6.90
2019-02-23T09:18:04.334Z,6.93
2019-02-23T09:19:08.414Z,6.99
2019-02-23T09:20:12.894Z,7.07
2019-02-23T09:21:16.981Z,7.15
2019-02-23T09:22:21.702Z,7.19
2019-02-23T09:23:26.008Z,7.17
2019-02-23T09:24:30.189Z,7.17
2019-02-23T09:25:34.025Z,7.18
2019-02-23T09:26:38.935Z,7.20
2019-02-23T09:27:43.358Z,7.21
2019-02-23T09:28:47.784Z,7.24
2019-02-23T09:29:52.271Z,7.30
2019-02-23T09:30:57.191Z,7.35
2019-02-23T09:32:01.423Z,7.38
2019-02-23T09:33:05.718Z,7.39
2019-02-23T09:34:10.216Z,7.37
2019-02-23T09:35:14.450Z,7.39
2019-02-23T09:36:18.356Z,7.41
2019-02-23T09:37:22.649Z,7.45
2019-02-23T09:38:26.497Z,7.50
2019-02-23T09:39:30.733Z,7.55
2019-02-23T09:40:35.288Z,7.57
2019-02-23T09:41:39.756Z,7.58
2019-02-23T09:42:43.928Z,7.62
2019-02-23T09:43:47.879Z,7.69
2019-02-23T09:44:52.119Z,7.72
2019-02-23T09:45:56.393Z,7.72
2019-02-23T09:47:01.097Z,7.77
2019-02-23T09:48:05.707Z,7.79
2019-02-23T09:49:10.384Z,7.81
2019-02-23T09:50:15.152Z,7.85
2019-02-23T09:51:19.234Z,7.87
2019-02-23T09:52:23.644Z,7.91
2019-02-23T09:53:27.986Z,7.95
2019-02-23T09:54:32.397Z,7.96
2019-02-23T09:55:36.774Z,7.97
2019-02-23T09:56:41.110Z,8.00
2019-02-23T09:57:45.539Z,8.02
2019-02-23T09:58:49.439Z,8.07
2019-02-23T09:59:53.532Z,8.12
2019-02-23T10:00:57.685Z,8.17
2019-02-23T10:02:02.417Z,8.21
2019-02-23T10:03:06.402Z,8.25
2019-02-23T10:04:10.823Z,8.31
2019-02-23T10:05:15.089Z,8.29
2019-02-23T10:06:18.929Z,8.26
2019-02-23T10:07:23.159Z,8.30
2019-02-23T10:08:27.334Z,8.34
2019-02-23T10:09:31.949Z,8.34
2019-02-23T10:10:36.856Z,8.38
2019-02-23T10:11:40.691Z,8.43
2019-02-23T10:12:44.784Z,8.45
2019-02-23T10:13:48.887Z,8.50
2019-02-23T10:14:53.321Z,8.55
2019-02-23T10:15:57.474Z,8.59
2019-02-23T10:17:01.384Z,8.60
2019-02-23T10:18:05.377Z,8.62
2019-02-23T10:19:09.650Z,8.63
2019-02-23T10:20:14.234Z,8.63
2019-02-23T10:21:18.264Z,8.66
2019-02-23T10:22:22.675Z,8.70
2019-02-23T10:23:26.856Z,8.74
2019-02-23T10:24:31.215Z,8.79
2019-02-23T10:25:35.670Z,8.83
2019-02-23T10:26:39.838Z,8.88
2019-02-23T10:27:44.396Z,8.89
2019-02-23T10:28:48.314Z,8.93
2019-02-23T10:29:52.415Z,8.95
2019-02-23T10:30:56.577Z,9.01
2019-02-23T10:32:00.701Z,9.03
2019-02-23T10:33:04.810Z,9.04
2019-02-23T10:34:09.096Z,9.07
2019-02-23T10:35:13.409Z,9.12
2019-02-23T10:36:17.606Z,9.17
2019-02-23T10:37:21.731Z,9.23
2019-02-23T10:38:26.286Z,9.27
2019-02-23T10:39:30.144Z,9.27
2019-02-23T10:40:34.655Z,9.29
2019-02-23T10:41:38.640Z,9.27
2019-02-23T10:42:43.477Z,9.28
2019-02-23T10:43:47.313Z,9.27
2019-02-23T10:44:51.496Z,9.30
2019-02-23T10:45:55.792Z,9.33
2019-02-23T10:47:00.245Z,9.33
2019-02-23T10:48:04.156Z,9.37
2019-02-23T10:49:08.607Z,9.38
2019-02-23T10:50:12.730Z,9.39
2019-02-23T10:51:16.717Z,9.40
2019-02-23T10:52:21.225Z,9.43
2019-02-23T10:53:32.648Z,9.42
2019-02-23T10:54:31.423Z,9.43
2019-02-23T10:55:35.345Z,9.48
2019-02-23T10:56:39.791Z,9.47
2019-02-23T10:57:43.625Z,9.48
2019-02-23T10:58:47.494Z,9.51
2019-02-23T10:59:51.692Z,9.51
2019-02-23T11:00:55.844Z,9.53
2019-02-23T11:02:00.527Z,9.56
2019-02-23T11:03:04.454Z,9.58
2019-02-23T11:04:09.129Z,9.63
2019-02-23T11:05:13.809Z,9.65
2019-02-23T11:06:18.211Z,9.69
2019-02-23T11:07:22.116Z,9.69
2019-02-23T11:08:26.018Z,9.75
2019-02-23T11:09:34.614Z,9.74
2019-02-23T11:10:39.040Z,9.75
2019-02-23T11:11:43.762Z,9.79
2019-02-23T11:12:47.925Z,9.79
2019-02-23T11:13:51.908Z,9.81
2019-02-23T11:14:55.892Z,9.85
2019-02-23T11:16:00.059Z,9.92
2019-02-23T11:17:04.048Z,9.87
2019-02-23T11:18:08.212Z,9.85
2019-02-23T11:19:12.616Z,9.85
2019-02-23T11:20:17.374Z,9.83
2019-02-23T11:21:21.855Z,9.89
2019-02-23T11:22:26.183Z,9.93
2019-02-23T11:23:30.670Z,9.91
2019-02-23T11:24:34.909Z,9.96
2019-02-23T11:25:38.899Z,9.92
2019-02-23T11:26:42.808Z,9.91
2019-02-23T11:27:47.266Z,9.93
2019-02-23T11:28:51.520Z,10.02
2019-02-23T11:29:55.754Z,10.01
2019-02-23T11:31:00.229Z,10.02
2019-02-23T11:32:04.219Z,10.07
2019-02-23T11:33:08.145Z,10.11
2019-02-23T11:34:12.546Z,10.17
2019-02-23T11:35:17.560Z,10.16
2019-02-23T11:36:22.055Z,10.23
2019-02-23T11:37:26.311Z,10.23
2019-02-23T11:38:30.300Z,10.26
2019-02-23T11:39:35.137Z,10.29
2019-02-23T11:40:39.050Z,10.31
2019-02-23T11:41:43.597Z,10.36
2019-02-23T11:42:47.523Z,10.32
2019-02-23T11:43:51.704Z,10.33
2019-02-23T11:44:56.320Z,10.35
2019-02-23T11:46:00.201Z,10.36
2019-02-23T11:47:04.525Z,10.41
2019-02-23T11:48:08.522Z,10.44
2019-02-23T11:49:12.805Z,10.46
2019-02-23T11:50:17.098Z,10.49
2019-02-23T11:51:20.964Z,10.52
2019-02-23T11:52:25.200Z,10.57
2019-02-23T11:53:29.451Z,10.67
2019-02-23T11:54:33.365Z,10.75
2019-02-23T11:55:37.655Z,10.83
2019-02-23T11:56:41.590Z,10.84
2019-02-23T11:57:45.869Z,10.83
2019-02-23T11:58:50.101Z,10.87
2019-02-23T11:59:54.379Z,10.92
2019-02-23T12:00:58.895Z,10.98
2019-02-23T12:02:03.011Z,10.98
2019-02-23T12:03:07.336Z,11.00
2019-02-23T12:04:11.928Z,11.04
2019-02-23T12:05:16.601Z,11.09
2019-02-23T12:06:20.531Z,11.13
2019-02-23T12:07:24.460Z,11.18
2019-02-23T12:08:28.650Z,11.14
2019-02-23T12:09:33.150Z,11.13
2019-02-23T12:10:37.309Z,11.15
2019-02-23T12:11:41.494Z,11.18
2019-02-23T12:12:45.404Z,11.20
2019-02-23T12:13:49.386Z,11.23
2019-02-23T12:14:53.667Z,11.25
2019-02-23T12:15:57.582Z,11.27
2019-02-23T12:17:01.766Z,11.28
2019-02-23T12:18:05.927Z,11.28
2019-02-23T12:19:10.011Z,11.27
2019-02-23T12:20:14.253Z,11.32
2019-02-23T12:21:18.589Z,11.30
2019-02-23T12:22:22.698Z,11.34
2019-02-23T12:23:27.216Z,11.36
2019-02-23T12:24:31.064Z,11.33
2019-02-23T12:25:34.967Z,11.32
2019-02-23T12:26:38.814Z,11.32
2019-02-23T12:27:43.065Z,11.37
2019-02-23T12:28:47.681Z,11.40
2019-02-23T12:29:51.516Z,11.40
2019-02-23T12:30:55.429Z,11.42
2019-02-23T12:31:59.336Z,11.46
2019-02-23T12:33:03.183Z,11.43
2019-02-23T12:34:07.272Z,11.42
2019-02-23T12:35:11.774Z,11.44
2019-02-23T12:36:15.934Z,11.46
2019-02-23T12:37:20.023Z,11.48
2019-02-23T12:38:23.930Z,11.47
2019-02-23T12:39:28.270Z,11.45
2019-02-23T12:40:32.107Z,11.48
2019-02-23T12:41:36.196Z,11.48
2019-02-23T12:42:40.205Z,11.51
2019-02-23T12:43:44.048Z,11.51
2019-02-23T12:44:48.472Z,11.54
2019-02-23T12:45:52.382Z,11.59
2019-02-23T12:46:56.765Z,11.64
2019-02-23T12:48:01.488Z,11.61
2019-02-23T12:49:05.656Z,11.65
2019-02-23T12:50:10.415Z,11.66
2019-02-23T12:51:14.334Z,11.61
2019-02-23T12:52:18.316Z,11.63
2019-02-23T12:53:22.404Z,11.61
2019-02-23T12:54:26.321Z,11.63
2019-02-23T12:55:30.664Z,11.66
2019-02-23T12:56:34.924Z,11.71
2019-02-23T12:57:39.745Z,11.75
2019-02-23T12:58:44.182Z,11.79
2019-02-23T12:59:48.493Z,11.84
2019-02-23T13:00:52.784Z,11.84
2019-02-23T13:01:56.704Z,11.89
2019-02-23T13:03:01.284Z,11.91
2019-02-23T13:04:05.903Z,11.94
2019-02-23T13:05:10.785Z,11.97
2019-02-23T13:06:15.483Z,12.01
2019-02-23T13:07:19.744Z,12.04
2019-02-23T13:08:25.930Z,12.09
2019-02-23T13:09:33.347Z,12.12
2019-02-23T13:10:37.465Z,12.13
2019-02-23T13:11:42.129Z,12.12
2019-02-23T13:13:17.688Z,12.13
2019-02-23T13:15:04.580Z,12.13
2019-02-23T13:16:30.187Z,12.09
2019-02-23T13:18:17.067Z,12.06
2019-02-23T13:20:07.290Z,12.04
2019-02-23T13:21:26.825Z,12.00
2019-02-23T13:23:17.835Z,12.01
2019-02-23T13:25:03.004Z,11.97
2019-02-23T13:26:45.625Z,12.00
2019-02-23T13:28:39.197Z,12.01
2019-02-23T13:30:20.344Z,12.06
2019-02-23T13:31:51.050Z,12.14
2019-02-23T13:33:30.379Z,12.23
2019-02-23T13:34:59.882Z,12.26
2019-02-23T13:36:36.816Z,12.32
2019-02-23T13:37:54.506Z,12.31
2019-02-23T13:39:25.447Z,12.41
2019-02-23T13:41:02.636Z,12.41
2019-02-23T13:42:18.606Z,12.42
2019-02-23T13:44:15.619Z,12.44
2019-02-23T13:45:36.392Z,12.44
2019-02-23T13:47:31.132Z,12.42
2019-02-23T13:49:14.802Z,12.36
2019-02-23T13:51:09.679Z,12.34
2019-02-23T13:52:32.184Z,12.34
2019-02-23T13:54:00.185Z,12.26
2019-02-23T13:56:03.474Z,12.25
2019-02-23T13:57:42.756Z,12.23
2019-02-23T13:59:34.486Z,12.21
2019-02-23T14:01:11.909Z,12.21
2019-02-23T14:02:55.520Z,12.23
2019-02-23T14:04:29.393Z,12.26
2019-02-23T14:06:02.376Z,12.27
2019-02-23T14:07:49.495Z,12.27
2019-02-23T14:09:52.524Z,12.26
2019-02-23T14:11:32.098Z,12.30
2019-02-23T14:13:04.142Z,12.26
2019-02-23T14:14:29.335Z,12.26
2019-02-23T14:16:09.196Z,12.19
2019-02-23T14:17:38.390Z,12.20
2019-02-23T14:19:15.373Z,12.18
2019-02-23T14:20:40.503Z,12.17
2019-02-23T14:22:20.596Z,12.18
2019-02-23T14:23:53.166Z,12.22
2019-02-23T14:25:17.652Z,12.19
2019-02-23T14:27:12.286Z,12.20
2019-02-23T14:28:39.209Z,12.23
2019-02-23T14:30:30.508Z,12.23
2019-02-23T14:31:45.605Z,12.25
2019-02-23T14:33:29.527Z,12.25
2019-02-23T14:35:19.787Z,12.26
2019-02-23T14:36:56.581Z,12.25
2019-02-23T14:38:35.150Z,12.19